Time;durP1;ratioP1;P1;durP2;ratioP2;P2;SDS_P1;SDS_P2;PMS_P1;PMS_P2;Temp;Humidity;BMP_temperature;BMP_pressure;BME280_temperature;BME280_humidity;BME280_pressure;Samples;Min_cycle;Max_cycle;Signal;HPM_P1;HPM_P2
2021/06/13 01:58:08;;;;;;;10.80;7.87;;;13.00;96.60;;;;;;4594096;23;20605;-89
2021/06/13 02:00:38;;;;;;;11.33;8.23;;;12.80;77.10;;;;;;4945946;29;20517;-90
2021/06/13 02:03:04;;;;;;;11.33;8.17;;;14.70;80.00;;;;;;4961932;28;20502;-90
2021/06/13 02:05:33;;;;;;;7.80;7.10;;;12.80;76.60;;;;;;4977891;28;20406;-90
2021/06/13 02:07:59;;;;;;;8.67;7.87;;;12.80;75.40;;;;;;4977681;28;20531;-89
2021/06/13 02:10:25;;;;;;;8.70;7.53;;;12.80;74.80;;;;;;4978052;28;20424;-89
2021/06/13 02:12:51;;;;;;;8.57;7.77;;;12.70;96.90;;;;;;4961067;28;20454;-91
2021/06/13 02:15:20;;;;;;;8.30;7.27;;;11.70;77.00;;;;;;4978673;28;20402;-89
2021/06/13 02:17:47;;;;;;;8.83;7.13;;;12.80;75.50;;;;;;4980552;28;20430;-89
2021/06/13 02:20:17;;;;;;;13.53;8.67;;;12.70;77.30;;;;;;4964204;29;20454;-88
2021/06/13 02:22:43;;;;;;;9.70;8.60;;;;;;;;;;4966032;28;20426;-90
2021/06/13 02:25:10;;;;;;;8.40;7.77;;;12.50;80.30;;;;;;4982306;28;20437;-90
2021/06/13 02:27:37;;;;;;;8.93;8.23;;;12.80;99.30;;;;;;4982578;28;20466;-90
2021/06/13 02:30:08;;;;;;;9.67;7.57;;;12.40;83.70;;;;;;4981976;28;20379;-90
2021/06/13 02:32:35;;;;;;;9.73;8.83;;;12.40;80.00;;;;;;4963969;29;20460;-90
2021/06/13 02:35:03;;;;;;;8.53;7.70;;;12.30;84.90;;;;;;4963744;29;20417;-90
2021/06/13 02:37:31;;;;;;;16.00;8.53;;;12.30;85.60;;;;;;4962382;28;20431;-90
2021/06/13 02:39:57;;;;;;;12.07;8.70;;;12.20;99.90;;;;;;4978438;28;20825;-90
2021/06/13 02:42:24;;;;;;;9.47;8.60;;;;;;;;;;4977776;28;20434;-90
2021/06/13 02:44:50;;;;;;;10.53;9.00;;;12.30;85.50;;;;;;4960810;29;20470;-90
2021/06/13 02:47:16;;;;;;;9.27;8.47;;;12.10;84.00;;;;;;4961453;29;20453;-90
2021/06/13 02:49:44;;;;;;;11.30;7.93;;;12.10;85.30;;;;;;4960091;29;20446;-90
2021/06/13 02:52:23;;;;;;;8.53;7.93;;;12.40;87.60;;;;;;4977518;28;20505;-90
2021/06/13 02:54:50;;;;;;;9.50;8.43;;;;;;;;;;4976945;28;20486;-90
2021/06/13 02:57:32;;;;;;;10.87;8.40;;;12.00;99.90;;;;;;4959989;29;20421;-90
2021/06/13 03:00:07;;;;;;;13.90;8.77;;;12.00;90.00;;;;;;4977378;28;20462;-90
2021/06/13 03:02:34;;;;;;;10.60;9.50;;;12.00;90.00;;;;;;4971363;28;20429;-90
2021/06/13 03:05:05;;;;;;;8.27;7.57;;;12.00;86.90;;;;;;4978358;28;20518;-87
2021/06/13 03:07:31;;;;;;;9.90;8.90;;;12.00;90.40;;;;;;4979491;28;20414;-90
2021/06/13 03:09:59;;;;;;;9.23;8.10;;;12.10;91.50;;;;;;4962098;29;20430;-89
2021/06/13 03:12:27;;;;;;;13.80;10.83;;;12.00;91.70;;;;;;4961232;29;20481;-91
2021/06/13 03:14:55;;;;;;;8.80;8.10;;;12.00;90.30;;;;;;4980408;28;20453;-91
2021/06/13 03:17:24;;;;;;;14.47;8.50;;;12.10;93.40;;;;;;4978793;28;20418;-90
2021/06/13 03:19:51;;;;;;;9.60;8.60;;;12.10;93.80;;;;;;4979193;28;20482;-90
2021/06/13 03:22:17;;;;;;;8.87;8.07;;;;;;;;;;4960390;29;20426;-90
2021/06/13 03:24:47;;;;;;;8.50;7.40;;;11.70;91.30;;;;;;4960864;29;20415;-90
2021/06/13 03:27:13;;;;;;;8.57;8.00;;;12.20;92.20;;;;;;4957501;29;20426;-90
2021/06/13 03:29:41;;;;;;;12.07;8.43;;;12.20;92.90;;;;;;4977300;28;20434;-89
2021/06/13 03:32:10;;;;;;;8.27;7.57;;;12.10;93.80;;;;;;4960768;28;20411;-89
2021/06/13 03:34:38;;;;;;;10.63;7.33;;;12.00;93.30;;;;;;4975926;28;20461;-90
2021/06/13 03:37:06;;;;;;;14.37;8.07;;;11.90;92.00;;;;;;4977868;28;20478;-90
2021/06/13 03:39:34;;;;;;;9.30;8.40;;;11.90;94.10;;;;;;4960312;29;20496;-90
2021/06/13 03:42:00;;;;;;;10.23;9.10;;;11.80;94.10;;;;;;4958564;29;20514;-90
2021/06/13 03:44:27;;;;;;;8.47;7.63;;;;;;;;;;4974993;28;20502;-90
2021/06/13 03:46:55;;;;;;;16.17;9.40;;;11.90;91.60;;;;;;4978060;28;20398;-90
2021/06/13 03:49:23;;;;;;;8.70;8.00;;;11.90;92.30;;;;;;4959960;29;20410;-90
2021/06/13 03:51:51;;;;;;;10.57;9.57;;;11.90;91.60;;;;;;4976285;28;20407;-90
2021/06/13 03:54:19;;;;;;;9.60;8.70;;;11.80;91.40;;;;;;4960129;29;20485;-90
2021/06/13 03:56:51;;;;;;;8.90;8.20;;;11.80;92.80;;;;;;4976786;28;20406;-91
2021/06/13 03:59:22;;;;;;;12.47;8.60;;;12.10;91.70;;;;;;4957836;29;20470;-90
2021/06/13 04:01:48;;;;;;;9.10;8.20;;;11.70;91.90;;;;;;4975734;28;20683;-90
2021/06/13 04:04:17;;;;;;;9.90;8.97;;;11.80;94.00;;;;;;4973257;28;20419;-91
2021/06/13 04:06:47;;;;;;;9.17;8.33;;;11.80;92.00;;;;;;4977155;28;20505;-90
2021/06/13 04:09:16;;;;;;;8.73;7.93;;;11.80;91.70;;;;;;4960265;28;20406;-89
2021/06/13 04:11:42;;;;;;;10.23;9.07;;;;;;;;;;4980776;28;20429;-90
2021/06/13 04:14:12;;;;;;;9.13;8.27;;;12.00;99.90;;;;;;4963948;28;20438;-87
2021/06/13 04:16:40;;;;;;;10.80;7.90;;;12.00;93.20;;;;;;4959207;29;20437;-90
2021/06/13 04:19:10;;;;;;;9.47;8.47;;;12.10;93.30;;;;;;4975331;28;20425;-89
2021/06/13 04:21:39;;;;;;;11.37;8.37;;;11.90;93.10;;;;;;4959495;29;20474;-89
2021/06/13 04:24:06;;;;;;;9.90;8.90;;;12.20;93.10;;;;;;4977369;28;20498;-89
2021/06/13 04:26:33;;;;;;;12.93;9.17;;;12.00;91.30;;;;;;4961512;29;20414;-90
2021/06/13 04:28:59;;;;;;;14.00;8.80;;;;;;;;;;4978927;28;20418;-89
2021/06/13 04:31:27;;;;;;;12.43;8.97;;;11.90;90.50;;;;;;4962816;29;20502;-90
2021/06/13 04:33:54;;;;;;;9.27;8.33;;;11.90;92.00;;;;;;4963259;28;20458;-90
2021/06/13 04:36:25;;;;;;;14.30;10.50;;;12.50;99.90;;;;;;4979863;28;20418;-90
2021/06/13 04:38:53;;;;;;;8.90;8.00;;;12.30;88.10;;;;;;4979558;28;20393;-89
2021/06/13 04:41:19;;;;;;;9.47;8.20;;;;;;;;;;4962926;28;20434;-89
2021/06/13 04:43:45;;;;;;;9.33;8.33;;;;;;;;;;4961932;29;20398;-91
2021/06/13 04:46:12;;;;;;;7.40;6.50;;;;;;;;;;4978859;28;20420;-91
2021/06/13 04:48:38;;;;;;;7.63;7.10;;;14.40;87.10;;;;;;4979180;28;20402;-89
2021/06/13 04:51:09;;;;;;;7.43;6.73;;;14.40;87.30;;;;;;4976186;28;20465;-90
2021/06/13 04:53:47;;;;;;;8.30;7.63;;;14.70;82.60;;;;;;4960865;29;20481;-90
2021/06/13 04:56:26;;;;;;;7.53;6.93;;;15.10;78.90;;;;;;4977700;28;20470;-91
2021/06/13 04:58:52;;;;;;;8.07;7.33;;;15.10;75.30;;;;;;4976338;28;20474;-90
2021/06/13 05:01:18;;;;;;;7.60;6.90;;;;;;;;;;4977384;28;20438;-90
2021/06/13 05:03:44;;;;;;;7.63;7.03;;;15.20;78.10;;;;;;4960374;28;20179;-90
2021/06/13 05:06:11;;;;;;;8.17;7.37;;;15.20;77.80;;;;;;4977515;28;20427;-90
2021/06/13 05:08:41;;;;;;;8.73;6.70;;;15.30;76.60;;;;;;4962649;28;20442;-90
2021/06/13 05:11:07;;;;;;;11.13;7.50;;;;;;;;;;4979157;28;20606;-91
2021/06/13 05:13:33;;;;;;;6.90;6.50;;;;;;;;;;4979183;28;20418;-89
2021/06/13 05:15:58;;;;;;;7.83;7.00;;;16.40;59.20;;;;;;4977109;28;20454;-92
2021/06/13 05:18:24;;;;;;;8.60;6.80;;;;;;;;;;4957826;29;20422;-91
2021/06/13 05:20:54;;;;;;;7.20;6.50;;;;;;;;;;4972272;28;20238;-91
2021/06/13 05:23:21;;;;;;;7.20;6.70;;;17.40;57.80;;;;;;4950046;29;20426;-90
2021/06/13 05:25:50;;;;;;;8.97;6.40;;;19.80;59.40;;;;;;4971516;28;20432;-91
2021/06/13 05:28:16;;;;;;;7.40;6.70;;;;;;;;;;4968965;28;20456;-91
2021/06/13 05:30:43;;;;;;;7.37;6.80;;;18.10;56.00;;;;;;4952652;28;20429;-91
2021/06/13 05:33:09;;;;;;;8.80;7.60;;;20.20;58.40;;;;;;4967626;28;20410;-91
2021/06/13 05:35:37;;;;;;;8.00;7.30;;;21.30;57.80;;;;;;4954437;29;20422;-91
2021/06/13 05:38:03;;;;;;;7.93;7.20;;;19.30;54.90;;;;;;4955748;29;20450;-92
2021/06/13 05:40:30;;;;;;;9.50;7.10;;;21.40;57.30;;;;;;4967398;28;20481;-91
2021/06/13 05:42:56;;;;;;;7.23;6.73;;;18.10;52.50;;;;;;4958311;28;20767;-90
2021/06/13 05:45:24;;;;;;;9.30;6.70;;;18.60;52.00;;;;;;4959477;28;20418;-90
2021/06/13 05:47:50;;;;;;;7.47;6.77;;;18.10;49.20;;;;;;4961489;28;20245;-91
2021/06/13 05:50:16;;;;;;;5.93;5.40;;;20.30;46.80;;;;;;4959596;28;20461;-90
2021/06/13 05:52:42;;;;;;;6.60;5.53;;;23.10;49.80;;;;;;4962393;28;20285;-91
2021/06/13 05:55:09;;;;;;;10.33;7.30;;;23.50;50.30;;;;;;4960574;28;20950;-89
2021/06/13 05:57:35;;;;;;;7.93;6.43;;;20.40;47.60;;;;;;4962803;28;20218;-89
2021/06/13 06:00:22;;;;;;;10.23;6.30;;;22.60;48.70;;;;;;4958484;28;20524;-87
2021/06/13 06:02:48;;;;;;;6.87;5.87;;;20.40;46.20;;;;;;4941863;29;20461;-91
2021/06/13 06:05:16;;;;;;;11.00;5.83;;;20.20;46.20;;;;;;4957457;29;20422;-89
2021/06/13 06:07:42;;;;;;;6.77;6.10;;;20.50;45.70;;;;;;4958809;28;20437;-88
2021/06/13 06:10:10;;;;;;;6.80;6.20;;;21.30;45.20;;;;;;4960455;28;20422;-88
2021/06/13 06:12:37;;;;;;;7.40;5.50;;;21.50;46.30;;;;;;4959765;28;20500;-89
2021/06/13 06:15:04;;;;;;;7.47;6.43;;;22.40;47.20;;;;;;4962216;29;20406;-90
2021/06/13 06:17:30;;;;;;;6.40;5.80;;;21.60;45.60;;;;;;4961639;29;20414;-91
2021/06/13 06:19:55;;;;;;;6.77;5.43;;;20.50;46.00;;;;;;4960912;28;20512;-90
2021/06/13 06:22:21;;;;;;;6.80;5.77;;;20.80;44.50;;;;;;4961216;28;20234;-91
2021/06/13 06:24:48;;;;;;;5.30;4.83;;;21.20;44.40;;;;;;4962035;28;20202;-89
2021/06/13 06:27:14;;;;;;;5.10;4.80;;;21.70;41.60;;;;;;4964330;28;20170;-90
2021/06/13 06:29:39;;;;;;;5.83;5.20;;;22.10;43.10;;;;;;4960884;28;20449;-90
2021/06/13 06:32:06;;;;;;;6.80;4.67;;;24.20;43.80;;;;;;4945651;29;20174;-90
2021/06/13 06:34:31;;;;;;;6.07;5.00;;;22.80;39.30;;;;;;4961096;28;20731;-90
2021/06/13 06:36:57;;;;;;;7.03;4.83;;;23.00;39.60;;;;;;4962886;28;20445;-90
2021/06/13 06:39:23;;;;;;;4.97;4.50;;;;;;;;;;4964022;28;20509;-91
2021/06/13 06:41:49;;;;;;;5.40;4.90;;;22.60;36.50;;;;;;4949269;29;20163;-89
2021/06/13 06:44:15;;;;;;;5.17;4.73;;;25.00;39.40;;;;;;4966479;28;20448;-89
2021/06/13 06:46:42;;;;;;;5.43;4.20;;;24.10;40.60;;;;;;4968703;28;20185;-89
2021/06/13 06:49:08;;;;;;;6.27;5.90;;;22.30;37.30;;;;;;4974554;28;20431;-88
2021/06/13 06:51:34;;;;;;;4.73;4.40;;;24.90;37.70;;;;;;4959989;29;20956;-85
2021/06/13 06:54:00;;;;;;;4.90;4.60;;;23.90;39.90;;;;;;4970836;28;20418;-89
2021/06/13 06:56:26;;;;;;;7.30;4.83;;;;;;;;;;4949251;29;21081;-89
2021/06/13 06:58:53;;;;;;;5.30;4.90;;;23.20;35.00;;;;;;4265620;29;10000666;-91
2021/06/13 07:01:18;;;;;;;4.30;4.10;;;24.00;35.30;;;;;;4959348;28;20245;-90
2021/06/13 07:03:44;;;;;;;4.97;4.47;;;23.00;35.60;;;;;;4942172;29;20430;-91
2021/06/13 07:06:10;;;;;;;4.70;4.30;;;22.70;37.30;;;;;;4959638;28;20175;-89
2021/06/13 07:08:35;;;;;;;4.20;3.80;;;23.20;35.80;;;;;;4942500;28;20198;-89
2021/06/13 07:11:02;;;;;;;4.47;4.03;;;25.30;35.40;;;;;;4958623;28;20171;-90
2021/06/13 07:13:27;;;;;;;5.30;4.83;;;25.50;34.80;;;;;;4961515;28;20598;-90
2021/06/13 07:15:53;;;;;;;4.43;4.10;;;25.90;34.00;;;;;;4942994;29;20435;-91
2021/06/13 07:18:19;;;;;;;4.57;4.27;;;24.40;33.20;;;;;;4945729;29;20241;-91
2021/06/13 07:20:46;;;;;;;5.30;4.20;;;;;;;;;;4944978;29;20254;-88
2021/06/13 07:23:12;;;;;;;4.03;3.70;;;25.80;30.40;;;;;;4963002;28;20230;-87
2021/06/13 07:25:38;;;;;;;4.40;4.00;;;27.20;32.50;;;;;;4945746;29;20546;-90
2021/06/13 07:28:05;;;;;;;4.57;4.17;;;26.70;35.20;;;;;;4946673;29;20876;-90
2021/06/13 07:30:32;;;;;;;4.77;4.43;;;26.10;32.60;;;;;;4946885;29;20186;-87
2021/06/13 07:32:57;;;;;;;6.43;5.20;;;29.00;34.00;;;;;;4948893;29;20422;-90
2021/06/13 07:35:23;;;;;;;6.13;4.33;;;27.30;33.30;;;;;;4966269;28;20468;-90
2021/06/13 07:37:49;;;;;;;14.03;12.87;;;27.30;34.80;;;;;;4947587;28;20183;-90
2021/06/13 07:40:16;;;;;;;5.53;5.10;;;27.10;33.10;;;;;;4946706;29;20773;-90
2021/06/13 07:42:42;;;;;;;9.90;5.60;;;23.30;30.00;;;;;;4942959;29;20183;-89
2021/06/13 07:45:10;;;;;;;4.40;4.20;;;27.60;32.60;;;;;;4961703;28;20604;-89
2021/06/13 07:47:38;;;;;;;4.63;4.20;;;25.80;31.80;;;;;;4958643;28;20430;-89
2021/06/13 07:50:06;;;;;;;5.63;5.13;;;29.00;36.70;;;;;;4944523;28;20434;-90
2021/06/13 07:52:32;;;;;;;4.90;4.50;;;26.40;30.90;;;;;;4942270;29;20433;-89
2021/06/13 07:54:59;;;;;;;4.00;3.70;;;28.20;31.90;;;;;;4954499;28;20513;-88
2021/06/13 07:57:25;;;;;;;5.50;3.80;;;26.00;30.30;;;;;;4936213;29;20883;-88
2021/06/13 07:59:50;;;;;;;4.73;4.30;;;25.70;30.10;;;;;;4953151;28;20547;-89
2021/06/13 08:02:16;;;;;;;4.60;4.10;;;26.90;30.40;;;;;;4973371;28;20918;-89
2021/06/13 08:04:47;;;;;;;5.03;4.63;;;26.60;30.00;;;;;;4940064;28;20433;-88
2021/06/13 08:07:12;;;;;;;6.30;5.20;;;28.70;30.10;;;;;;4973509;28;20973;-88
2021/06/13 08:09:38;;;;;;;5.23;4.40;;;26.30;29.50;;;;;;4956041;28;20468;-88
2021/06/13 08:12:04;;;;;;;5.20;4.80;;;25.90;30.10;;;;;;4972594;28;20201;-88
2021/06/13 08:14:30;;;;;;;6.10;4.70;;;26.20;30.80;;;;;;4955533;28;20181;-87
2021/06/13 08:16:55;;;;;;;4.97;4.63;;;26.40;30.20;;;;;;4958306;28;20512;-86
2021/06/13 08:19:21;;;;;;;4.40;4.20;;;27.30;29.90;;;;;;4954110;29;20206;-88
2021/06/13 08:21:49;;;;;;;5.30;4.90;;;28.40;29.80;;;;;;4938448;29;20185;-88
2021/06/13 08:24:36;;;;;;;4.57;4.27;;;26.70;28.80;;;;;;4946315;29;20163;-89
2021/06/13 08:27:17;;;;;;;4.90;4.40;;;28.60;30.20;;;;;;4977502;28;20430;-89
2021/06/13 08:29:43;;;;;;;6.13;4.30;;;29.30;33.50;;;;;;4960857;28;20505;-86
2021/06/13 08:34:53;;;;;;;4.40;4.00;;;28.60;28.40;;;;;;5436051;23;20234;-90
2021/06/13 08:37:19;;;;;;;4.60;4.37;;;28.50;28.30;;;;;;4957325;29;20443;-90
2021/06/13 08:39:50;;;;;;;4.00;3.80;;;27.40;29.40;;;;;;4956631;29;20442;-88
2021/06/13 08:44:55;;;;;;;4.13;3.67;;;29.50;27.90;;;;;;4967421;28;20505;-88
2021/06/13 08:47:22;;;;;;;4.20;3.90;;;30.40;29.30;;;;;;4958631;28;20448;-89
2021/06/13 08:49:48;;;;;;;5.10;4.50;;;30.60;28.50;;;;;;4940154;29;20171;-87
2021/06/13 08:52:14;;;;;;;4.93;4.63;;;30.40;27.20;;;;;;4958723;28;20407;-87
2021/06/13 08:54:41;;;;;;;4.27;4.07;;;31.10;27.50;;;;;;4938766;28;20980;-90
2021/06/13 08:57:07;;;;;;;4.50;4.17;;;30.50;27.60;;;;;;4939561;29;20415;-88
2021/06/13 08:59:33;;;;;;;5.97;4.40;;;29.50;27.40;;;;;;4940761;29;20454;-89
2021/06/13 09:02:00;;;;;;;4.70;4.30;;;29.00;27.50;;;;;;4939750;29;20438;-89
2021/06/13 09:04:26;;;;;;;5.67;4.23;;;31.70;28.20;;;;;;4956338;28;20169;-90
2021/06/13 09:06:51;;;;;;;4.50;4.27;;;28.90;27.80;;;;;;4956729;28;20478;-90
2021/06/13 09:09:22;;;;;;;3.70;3.40;;;32.10;29.10;;;;;;4955908;28;20202;-89
2021/06/13 09:11:59;;;;;;;4.20;4.00;;;30.80;27.20;;;;;;4612948;28;9999606;-90
2021/06/13 09:14:26;;;;;;;4.70;4.30;;;30.60;26.60;;;;;;4952895;28;20224;-90
2021/06/13 09:16:52;;;;;;;4.77;4.43;;;31.60;27.50;;;;;;4936336;29;20428;-89
2021/06/13 09:19:18;;;;;;;4.37;3.70;;;32.40;27.00;;;;;;4954392;28;20449;-89
2021/06/13 09:21:46;;;;;;;5.17;4.10;;;32.00;27.30;;;;;;4955029;28;20166;-88
2021/06/13 09:24:26;;;;;;;5.90;5.37;;;31.60;27.40;;;;;;4952528;28;20473;-89
2021/06/13 09:26:53;;;;;;;4.30;4.00;;;30.90;26.20;;;;;;4953075;28;20422;-89
2021/06/13 09:29:19;;;;;;;4.73;4.30;;;33.20;27.00;;;;;;4952888;28;20421;-88
2021/06/13 09:31:45;;;;;;;4.10;3.80;;;32.10;26.10;;;;;;4955393;28;20911;-89
2021/06/13 09:34:19;;;;;;;62.90;39.93;;;32.20;26.10;;;;;;4956308;28;20434;-88
2021/06/13 09:36:45;;;;;;;4.33;4.03;;;31.80;26.10;;;;;;4953384;28;20437;-88
2021/06/13 09:39:14;;;;;;;4.60;4.40;;;32.00;26.00;;;;;;4942999;28;20441;-89
2021/06/13 09:41:43;;;;;;;5.50;4.00;;;34.00;27.20;;;;;;4934119;29;20950;-88
2021/06/13 09:44:11;;;;;;;4.53;3.60;;;32.80;25.70;;;;;;4938161;29;20493;-89
2021/06/13 09:46:43;;;;;;;4.43;4.03;;;33.30;26.00;;;;;;4952641;28;20485;-88
2021/06/13 09:49:12;;;;;;;4.23;4.03;;;32.50;25.40;;;;;;4953115;29;20461;-86
2021/06/13 09:51:46;;;;;;;5.30;5.00;;;32.70;25.90;;;;;;4952215;28;20899;-91
2021/06/13 09:54:18;;;;;;;4.13;3.93;;;31.00;25.60;;;;;;4935994;29;21151;-90
2021/06/13 09:56:44;;;;;;;4.93;4.53;;;33.00;26.50;;;;;;4947322;28;20419;-89
2021/06/13 09:59:32;;;;;;;4.93;4.30;;;31.30;26.40;;;;;;4922173;29;20443;-91
2021/06/13 10:02:07;;;;;;;4.63;4.13;;;31.50;26.60;;;;;;4952733;29;20239;-90
2021/06/13 10:04:46;;;;;;;3.80;3.60;;;32.20;26.10;;;;;;4937277;29;20437;-92
2021/06/13 10:07:18;;;;;;;4.97;4.30;;;32.60;25.90;;;;;;4921475;29;20886;-93
2021/06/13 10:09:54;;;;;;;4.60;4.40;;;33.20;27.50;;;;;;4931201;29;20431;-89
2021/06/13 10:12:55;;;;;;;5.07;4.70;;;33.50;25.80;;;;;;4940475;28;20445;-88
2021/06/13 10:15:21;;;;;;;6.43;6.03;;;33.80;25.00;;;;;;4971608;28;20448;-87
2021/06/13 10:17:49;;;;;;;5.70;4.90;;;33.30;25.00;;;;;;4971333;28;20449;-88
2021/06/13 10:20:24;;;;;;;4.30;4.00;;;33.10;25.40;;;;;;4974060;28;20468;-87
2021/06/13 10:22:50;;;;;;;5.33;4.60;;;32.90;25.40;;;;;;4974176;28;20409;-86
2021/06/13 10:25:16;;;;;;;4.47;4.17;;;32.90;25.80;;;;;;4974073;28;20417;-85
2021/06/13 10:27:42;;;;;;;4.33;4.07;;;33.20;25.80;;;;;;4974204;28;20496;-85
2021/06/13 10:30:09;;;;;;;5.30;4.90;;;34.20;26.10;;;;;;4974101;28;20185;-87
2021/06/13 10:32:35;;;;;;;4.67;4.23;;;32.20;25.90;;;;;;4974485;28;20510;-88
2021/06/13 10:35:05;;;;;;;6.43;5.13;;;32.50;26.20;;;;;;4957210;28;20448;-87
2021/06/13 10:37:31;;;;;;;4.70;4.20;;;32.20;26.30;;;;;;4960168;28;20493;-88
2021/06/13 10:39:58;;;;;;;5.77;5.10;;;32.10;26.40;;;;;;4977505;28;20519;-88
2021/06/13 10:42:36;;;;;;;4.47;4.10;;;32.10;26.10;;;;;;4986447;28;20169;-93
2021/06/13 10:45:06;;;;;;;5.47;4.03;;;32.40;27.30;;;;;;4995883;28;20445;-88
2021/06/13 10:47:37;;;;;;;4.40;3.60;;;32.30;25.90;;;;;;4977410;28;20417;-90
2021/06/13 10:50:17;;;;;;;4.63;4.23;;;33.10;25.80;;;;;;4978152;28;20441;-89
2021/06/13 10:53:10;;;;;;;4.33;4.00;;;32.40;26.30;;;;;;4977667;28;20425;-90
2021/06/13 10:55:51;;;;;;;4.27;3.93;;;33.60;25.50;;;;;;4995093;28;20430;-90
2021/06/13 10:58:59;;;;;;;5.27;4.90;;;33.20;25.90;;;;;;4994107;28;20412;-90
2021/06/13 11:01:30;;;;;;;3.90;3.80;;;33.10;25.10;;;;;;4957674;28;20460;-89
2021/06/13 11:04:06;;;;;;;3.80;3.60;;;33.20;25.30;;;;;;4976307;28;20424;-83
2021/06/13 11:06:48;;;;;;;4.20;4.00;;;33.70;25.40;;;;;;4975504;28;20440;-83
2021/06/13 11:09:14;;;;;;;6.40;4.30;;;33.10;25.00;;;;;;4975982;28;20409;-83
2021/06/13 11:11:43;;;;;;;4.77;4.47;;;34.10;25.30;;;;;;4975744;28;20422;-82
2021/06/13 11:14:25;;;;;;;4.00;3.80;;;33.60;25.70;;;;;;4975573;28;20501;-84
2021/06/13 11:16:55;;;;;;;3.77;3.50;;;33.60;26.00;;;;;;4959389;28;20905;-83
2021/06/13 11:19:34;;;;;;;4.57;4.17;;;33.60;25.90;;;;;;4976414;28;20812;-83
2021/06/13 11:22:18;;;;;;;4.10;3.80;;;33.00;25.30;;;;;;4976176;28;20433;-82
2021/06/13 11:24:45;;;;;;;4.00;3.70;;;33.80;25.10;;;;;;4976909;28;20420;-82
2021/06/13 11:27:10;;;;;;;4.43;4.23;;;33.60;24.90;;;;;;4975650;28;20469;-83
2021/06/13 11:29:57;;;;;;;4.13;3.83;;;33.60;25.20;;;;;;4961579;28;20437;-84
2021/06/13 11:32:52;;;;;;;10.17;9.57;;;33.80;24.50;;;;;;4943329;29;20179;-82
2021/06/13 11:35:31;;;;;;;3.67;3.60;;;34.20;24.70;;;;;;4941136;29;20418;-83
2021/06/13 11:38:09;;;;;;;3.43;3.23;;;33.90;24.30;;;;;;4955760;28;20403;-83
2021/06/13 11:40:48;;;;;;;6.60;6.27;;;34.00;24.50;;;;;;4955669;28;20549;-83
2021/06/13 11:43:17;;;;;;;4.10;3.90;;;34.20;24.60;;;;;;4938505;29;20454;-82
2021/06/13 11:45:57;;;;;;;4.30;3.90;;;33.80;24.10;;;;;;4955256;29;20875;-83
2021/06/13 11:48:26;;;;;;;4.80;4.50;;;35.10;24.40;;;;;;4943364;28;20430;-84
2021/06/13 11:51:08;;;;;;;4.73;4.40;;;35.10;24.20;;;;;;4936805;29;20415;-82
2021/06/13 11:53:52;;;;;;;4.00;3.80;;;34.90;24.30;;;;;;4936480;29;20415;-82
2021/06/13 11:59:03;;;;;;;4.10;3.97;;;36.40;25.30;;;;;;4955634;29;20422;-84
2021/06/13 12:01:30;;;;;;;4.97;4.67;;;34.90;24.40;;;;;;4952038;28;20933;-83
2021/06/13 12:03:57;;;;;;;6.60;4.30;;;34.60;24.20;;;;;;4951222;28;20516;-82
2021/06/13 12:06:22;;;;;;;8.00;5.70;;;33.90;23.90;;;;;;4259417;28;10000744;-83
2021/06/13 12:08:51;;;;;;;6.17;5.80;;;34.30;24.10;;;;;;4932772;29;20531;-83
2021/06/13 12:11:37;;;;;;;4.80;3.90;;;34.90;23.80;;;;;;4931617;29;20187;-82
2021/06/13 12:14:34;;;;;;;4.13;3.80;;;34.80;23.50;;;;;;4915870;29;20514;-83
2021/06/13 12:17:23;;;;;;;4.47;4.07;;;35.20;23.70;;;;;;4933090;29;20498;-84
2021/06/13 12:19:52;;;;;;;4.67;4.37;;;36.20;23.10;;;;;;4925496;29;20665;-82
2021/06/13 12:22:31;;;;;;;4.73;4.43;;;35.40;23.00;;;;;;4933531;29;20416;-83
2021/06/13 12:27:34;;;;;;;5.23;5.00;;;35.50;23.50;;;;;;4951670;28;20418;-82
2021/06/13 12:30:02;;;;;;;4.43;4.20;;;35.30;23.80;;;;;;4951751;29;20832;-83
2021/06/13 12:32:30;;;;;;;4.40;4.17;;;35.30;23.30;;;;;;4952001;28;20432;-82
2021/06/13 12:35:11;;;;;;;5.63;3.87;;;35.10;23.30;;;;;;4952176;28;20639;-82
2021/06/13 12:37:37;;;;;;;4.43;4.20;;;35.10;23.70;;;;;;4949177;28;20423;-84
2021/06/13 12:40:05;;;;;;;4.50;4.30;;;36.10;24.40;;;;;;4931546;29;20489;-83
2021/06/13 12:42:31;;;;;;;4.97;4.50;;;35.10;23.90;;;;;;4951496;28;20418;-82
2021/06/13 12:45:10;;;;;;;5.37;4.60;;;35.30;24.10;;;;;;4939322;29;20447;-82
2021/06/13 12:47:36;;;;;;;3.80;3.60;;;35.40;23.70;;;;;;4915447;29;20431;-83
2021/06/13 12:50:04;;;;;;;4.60;4.20;;;35.60;23.80;;;;;;4915485;29;20439;-82
2021/06/13 12:52:29;;;;;;;4.93;4.53;;;34.90;24.00;;;;;;4931953;29;20844;-82
2021/06/13 12:54:58;;;;;;;4.20;3.90;;;34.40;24.40;;;;;;4932623;29;20949;-83
2021/06/13 12:57:24;;;;;;;4.53;4.17;;;34.30;24.50;;;;;;4947287;29;20603;-81
2021/06/13 12:59:51;;;;;;;5.07;4.67;;;34.50;24.80;;;;;;4933918;29;20473;-83
2021/06/13 13:02:17;;;;;;;6.00;5.50;;;34.50;24.80;;;;;;4933364;29;20418;-83
2021/06/13 13:04:56;;;;;;;5.17;4.77;;;34.70;24.40;;;;;;4951828;28;20902;-84
2021/06/13 13:07:36;;;;;;;4.90;4.37;;;34.90;24.40;;;;;;4952678;28;20429;-84
2021/06/13 13:10:05;;;;;;;5.60;4.70;;;35.10;24.30;;;;;;4971129;28;20504;-82
2021/06/13 13:12:31;;;;;;;7.70;7.20;;;35.20;24.60;;;;;;4953638;28;20931;-83
2021/06/13 13:15:24;;;;;;;6.83;6.33;;;34.90;24.70;;;;;;4952971;28;20909;-84
2021/06/13 13:18:15;;;;;;;4.50;4.30;;;34.90;24.60;;;;;;4970914;28;20414;-82
2021/06/13 13:20:50;;;;;;;8.47;7.60;;;35.20;24.50;;;;;;4970795;28;20517;-84
2021/06/13 13:23:16;;;;;;;6.93;6.33;;;35.50;24.70;;;;;;4971090;28;20417;-84
2021/06/13 13:25:47;;;;;;;5.90;5.03;;;35.50;24.90;;;;;;4953344;28;20524;-83
2021/06/13 13:28:23;;;;;;;5.00;4.40;;;35.80;24.10;;;;;;4971014;28;20545;-83
2021/06/13 13:31:00;;;;;;;5.10;4.80;;;35.40;24.10;;;;;;4953025;28;20938;-83
2021/06/13 13:33:35;;;;;;;4.83;4.63;;;35.30;24.30;;;;;;4971022;28;20753;-84
2021/06/13 13:36:12;;;;;;;7.43;4.97;;;34.80;24.40;;;;;;4972095;28;20413;-84
2021/06/13 13:38:45;;;;;;;4.50;4.20;;;34.60;24.30;;;;;;4958565;28;20475;-89
2021/06/13 13:41:37;;;;;;;5.20;4.80;;;34.60;24.30;;;;;;4989452;28;20551;-87
2021/06/13 13:44:12;;;;;;;7.27;6.53;;;34.70;24.70;;;;;;4990888;28;20464;-91
2021/06/13 13:46:56;;;;;;;4.90;4.60;;;35.20;24.60;;;;;;4974477;28;20472;-92
2021/06/13 13:50:05;;;;;;;4.40;4.27;;;35.30;24.30;;;;;;4991288;28;20468;-90
2021/06/13 13:52:31;;;;;;;4.33;4.13;;;34.90;24.60;;;;;;4974996;28;20421;-91
2021/06/13 13:55:03;;;;;;;5.57;5.27;;;34.70;27.20;;;;;;4975345;28;20437;-89
2021/06/13 13:57:46;;;;;;;5.27;4.87;;;33.20;25.40;;;;;;4992118;28;20448;-89
2021/06/13 14:00:13;;;;;;;5.50;5.10;;;34.20;26.20;;;;;;4975665;28;20464;-89
2021/06/13 14:02:41;;;;;;;4.10;3.90;;;34.30;26.30;;;;;;4978377;28;20450;-89
2021/06/13 14:05:07;;;;;;;5.53;4.27;;;34.40;25.70;;;;;;4959142;28;20476;-90
2021/06/13 14:07:34;;;;;;;16.33;14.97;;;34.40;24.90;;;;;;4944121;28;20175;-89
2021/06/13 14:10:00;;;;;;;4.80;4.60;;;34.90;25.10;;;;;;4947922;29;20411;-88
2021/06/13 14:12:25;;;;;;;4.93;4.60;;;34.80;24.90;;;;;;4924106;29;20435;-89
2021/06/13 14:14:51;;;;;;;6.80;6.17;;;34.40;25.20;;;;;;4940921;29;20423;-87
2021/06/13 14:17:17;;;;;;;5.13;4.83;;;34.00;25.60;;;;;;4939196;29;20172;-89
2021/06/13 14:19:42;;;;;;;4.77;4.50;;;34.50;25.50;;;;;;4922663;29;20199;-89
2021/06/13 14:22:08;;;;;;;5.03;4.53;;;33.80;25.30;;;;;;4940527;29;20175;-89
2021/06/13 14:24:34;;;;;;;5.10;4.63;;;34.10;25.60;;;;;;4948496;28;20580;-87
2021/06/13 14:26:59;;;;;;;4.57;4.27;;;34.00;25.30;;;;;;4959049;28;20182;-87
2021/06/13 14:29:26;;;;;;;4.60;4.40;;;34.10;25.50;;;;;;4958378;28;20163;-87
2021/06/13 14:31:52;;;;;;;7.20;6.47;;;33.90;25.50;;;;;;4941399;29;20186;-86
2021/06/13 14:34:18;;;;;;;7.70;7.20;;;33.70;25.30;;;;;;4959597;28;20522;-87
2021/06/13 14:36:44;;;;;;;4.37;4.10;;;34.00;25.20;;;;;;4958706;28;20422;-85
2021/06/13 14:39:10;;;;;;;5.30;4.97;;;33.50;24.90;;;;;;4958306;28;20417;-88
2021/06/13 14:41:36;;;;;;;5.10;4.37;;;32.80;25.20;;;;;;4958535;28;20426;-86
2021/06/13 14:44:03;;;;;;;5.57;5.20;;;32.80;25.50;;;;;;4940571;29;20300;-88
2021/06/13 14:46:29;;;;;;;6.70;4.93;;;32.60;25.60;;;;;;4957698;28;20418;-86
2021/06/13 14:48:55;;;;;;;10.23;5.63;;;32.50;25.90;;;;;;4958655;28;20811;-88
2021/06/13 14:51:21;;;;;;;4.30;4.00;;;30.90;25.90;;;;;;4940651;29;20181;-88
2021/06/13 14:53:50;;;;;;;5.20;4.77;;;30.80;26.50;;;;;;4959982;28;20249;-87
2021/06/13 14:56:16;;;;;;;5.30;4.60;;;30.50;27.10;;;;;;4942539;29;20646;-86
2021/06/13 14:58:42;;;;;;;5.10;4.70;;;28.40;28.50;;;;;;4961027;28;20612;-88
2021/06/13 15:01:07;;;;;;;5.63;5.00;;;;;;;;;;4951404;29;20470;-87
2021/06/13 15:03:33;;;;;;;4.73;4.43;;;27.40;27.70;;;;;;4926059;29;20176;-88
2021/06/13 15:05:59;;;;;;;6.00;4.80;;;27.20;28.90;;;;;;4940966;29;20419;-87
2021/06/13 15:08:24;;;;;;;4.93;4.60;;;27.70;28.90;;;;;;4940275;29;20167;-88
2021/06/13 15:10:50;;;;;;;8.63;8.03;;;26.80;29.20;;;;;;4940772;29;20254;-88
2021/06/13 15:13:15;;;;;;;7.00;6.50;;;28.00;30.00;;;;;;4941690;29;20175;-88